createdAt,value
2022-09-01T00:00:13.417Z,90.94
2022-09-01T00:03:01.453Z,91.02
2022-09-01T00:05:32.837Z,91.05
2022-09-01T00:08:01.375Z,91.15
2022-09-01T00:10:30.039Z,91.12
2022-09-01T00:12:59.133Z,91.16
2022-09-01T00:15:27.997Z,91.20
2022-09-01T00:17:56.342Z,91.25
2022-09-01T00:20:24.901Z,91.40
2022-09-01T00:22:53.274Z,91.43
2022-09-01T00:25:24.794Z,91.52
2022-09-01T00:27:53.304Z,91.57
2022-09-01T00:30:22.488Z,91.63
2022-09-01T00:32:51.028Z,91.71
2022-09-01T00:35:20.392Z,91.77
2022-09-01T00:37:48.857Z,91.67
2022-09-01T00:40:18.788Z,91.77
2022-09-01T00:42:49.003Z,91.87
2022-09-01T00:45:17.424Z,91.97
2022-09-01T00:47:45.777Z,91.98
2022-09-01T00:50:18.168Z,92.18
2022-09-01T00:52:55.003Z,92.39
2022-09-01T00:55:33.289Z,92.36
2022-09-01T00:58:03.969Z,92.44
2022-09-01T01:00:40.848Z,92.42
2022-09-01T01:03:13.819Z,92.58
2022-09-01T01:05:55.757Z,92.62
2022-09-01T01:08:34.544Z,92.70
2022-09-01T01:11:17.922Z,92.79
2022-09-01T01:14:12.409Z,92.83
2022-09-01T01:16:47.073Z,92.93
2022-09-01T01:20:03.253Z,93.05
2022-09-01T01:23:02.294Z,93.10
2022-09-01T01:25:44.307Z,93.32
2022-09-01T01:28:16.503Z,93.31
2022-09-01T01:30:52.438Z,93.32
2022-09-01T01:33:25.913Z,93.53
2022-09-01T01:35:57.526Z,93.53
2022-09-01T01:38:27.556Z,93.48
2022-09-01T01:40:56.376Z,93.82
2022-09-01T01:43:26.450Z,93.76
2022-09-01T01:46:02.886Z,93.98
2022-09-01T01:48:34.823Z,94.04
2022-09-01T01:51:05.846Z,94.10
2022-09-01T01:53:34.754Z,94.10
2022-09-01T01:56:03.617Z,94.19
2022-09-01T01:58:34.964Z,94.28
2022-09-01T02:01:03.735Z,94.40
2022-09-01T02:03:38.718Z,94.50
2022-09-01T02:06:12.095Z,94.57
2022-09-01T02:08:41.317Z,94.64
2022-09-01T02:11:09.637Z,94.74
2022-09-01T02:13:37.993Z,94.81
2022-09-01T02:16:13.131Z,94.83
2022-09-01T02:18:48.925Z,94.98
2022-09-01T02:21:21.290Z,94.97
2022-09-01T02:24:02.173Z,94.94
2022-09-01T02:26:43.015Z,95.12
2022-09-01T02:29:19.179Z,95.08
2022-09-01T02:31:53.692Z,95.22
2022-09-01T02:34:24.803Z,95.20
2022-09-01T02:36:56.012Z,95.15
2022-09-01T02:39:29.689Z,95.24
2022-09-01T02:41:58.580Z,95.24
2022-09-01T02:44:29.317Z,95.18
2022-09-01T02:46:58.930Z,95.19
2022-09-01T02:49:28.728Z,95.11
2022-09-01T02:52:01.844Z,95.25
2022-09-01T02:54:32.614Z,95.19
2022-09-01T02:57:01.677Z,95.32
2022-09-01T02:59:31.002Z,95.16
2022-09-01T03:01:59.573Z,95.33
2022-09-01T03:04:27.986Z,95.36
2022-09-01T03:06:58.925Z,95.47
2022-09-01T03:09:28.188Z,95.45
2022-09-01T03:11:56.576Z,95.57
2022-09-01T03:14:26.066Z,95.55
2022-09-01T03:16:54.533Z,95.57
2022-09-01T03:19:23.206Z,95.52
2022-09-01T03:21:51.803Z,95.48
2022-09-01T03:24:20.239Z,95.67
2022-09-01T03:26:50.827Z,95.63
2022-09-01T03:29:20.610Z,95.60
2022-09-01T03:31:49.600Z,95.68
2022-09-01T03:34:20.842Z,95.73
2022-09-01T03:36:50.922Z,95.76
2022-09-01T03:39:20.045Z,95.76
2022-09-01T03:41:48.801Z,95.97
2022-09-01T03:44:17.323Z,95.88
2022-09-01T03:46:46.916Z,95.96
2022-09-01T03:49:25.308Z,95.78
2022-09-01T03:51:54.600Z,95.93
2022-09-01T03:54:30.667Z,96.02
2022-09-01T03:57:00.012Z,96.08
2022-09-01T03:59:30.210Z,96.15
2022-09-01T04:02:00.437Z,96.21
2022-09-01T04:04:33.090Z,96.23
2022-09-01T04:07:01.644Z,96.19
2022-09-01T04:09:30.020Z,96.22
2022-09-01T04:11:58.798Z,96.37
2022-09-01T04:14:29.212Z,96.29
2022-09-01T04:17:17.291Z,96.41
2022-09-01T04:19:45.846Z,96.50
2022-09-01T04:22:15.675Z,96.38
2022-09-01T04:24:45.946Z,96.63
2022-09-01T04:27:18.280Z,96.75
2022-09-01T04:29:48.631Z,96.62
2022-09-01T04:32:17.026Z,96.82
2022-09-01T04:34:45.371Z,96.64
2022-09-01T04:37:18.966Z,96.64
2022-09-01T04:39:56.292Z,96.78
2022-09-01T04:42:29.186Z,96.75
2022-09-01T04:45:00.109Z,96.78
2022-09-01T04:47:35.604Z,96.87
2022-09-01T04:50:14.058Z,96.86
2022-09-01T04:52:47.928Z,96.70
2022-09-01T04:55:19.202Z,97.00
2022-09-01T04:57:49.635Z,96.99
2022-09-01T05:00:22.728Z,97.16
2022-09-01T05:03:04.707Z,97.21
2022-09-01T05:05:54.143Z,97.14
2022-09-01T05:08:24.491Z,97.17
2022-09-01T05:10:57.016Z,97.22
2022-09-01T05:13:29.710Z,97.18
2022-09-01T05:16:13.182Z,97.11
2022-09-01T05:18:47.917Z,97.28
2022-09-01T05:21:22.329Z,97.39
2022-09-01T05:23:51.904Z,97.21
2022-09-01T05:26:31.735Z,97.19
2022-09-01T05:29:13.536Z,97.24
2022-09-01T05:31:45.590Z,97.27
2022-09-01T05:34:20.112Z,97.17
2022-09-01T05:36:50.854Z,97.11
2022-09-01T05:39:20.933Z,96.98
2022-09-01T05:41:49.941Z,97.05
2022-09-01T05:44:18.911Z,97.13
2022-09-01T05:46:47.747Z,97.01
2022-09-01T05:49:18.713Z,96.87
2022-09-01T05:51:51.796Z,96.78
2022-09-01T05:54:25.314Z,96.65
2022-09-01T05:57:12.615Z,96.58
2022-09-01T05:59:53.779Z,96.37
2022-09-01T06:02:26.379Z,96.44
2022-09-01T06:04:56.995Z,96.37
2022-09-01T06:07:28.610Z,96.24
2022-09-01T06:09:57.272Z,96.09
2022-09-01T06:12:28.151Z,95.96
2022-09-01T06:14:58.423Z,95.88
2022-09-01T06:17:30.041Z,95.71
2022-09-01T06:20:13.619Z,95.51
2022-09-01T06:22:42.118Z,94.93
2022-09-01T06:25:11.060Z,94.98
2022-09-01T06:27:42.585Z,94.90
2022-09-01T06:30:20.121Z,94.57
2022-09-01T06:32:52.266Z,94.26
2022-09-01T06:35:25.212Z,94.00
2022-09-01T06:37:58.456Z,93.51
2022-09-01T06:40:36.089Z,93.61
2022-09-01T06:43:08.430Z,93.36
2022-09-01T06:45:45.213Z,93.16
2022-09-01T06:48:16.343Z,92.71
2022-09-01T06:53:35.862Z,92.48
2022-09-01T06:56:04.254Z,92.19
2022-09-01T06:58:38.316Z,92.19
2022-09-01T07:01:16.083Z,91.79
2022-09-01T07:03:51.221Z,91.68
2022-09-01T07:09:50.015Z,91.28
2022-09-01T07:12:35.287Z,90.79
2022-09-01T07:18:03.505Z,90.44
2022-09-01T07:21:36.783Z,90.28
2022-09-01T07:24:08.688Z,90.13
2022-09-01T07:26:47.173Z,89.84
2022-09-01T07:29:21.855Z,89.36
2022-09-01T07:35:11.701Z,88.40
2022-09-01T07:43:33.501Z,87.16
2022-09-01T07:46:36.668Z,86.70
2022-09-01T07:49:29.619Z,86.46
2022-09-01T07:51:45.581Z,85.83
2022-09-01T07:54:14.093Z,85.05
2022-09-01T07:56:42.745Z,85.02
2022-09-01T07:59:15.303Z,84.51
2022-09-01T08:01:44.329Z,84.21
2022-09-01T08:04:13.583Z,84.35
2022-09-01T08:06:42.112Z,84.09
2022-09-01T08:09:11.982Z,84.03
2022-09-01T08:12:02.051Z,83.43
2022-09-01T08:14:34.773Z,83.02
2022-09-01T08:17:34.088Z,82.45
2022-09-01T08:19:53.680Z,81.94
2022-09-01T08:22:24.414Z,81.23
2022-09-01T08:24:53.117Z,81.08
2022-09-01T08:27:21.575Z,81.20
2022-09-01T08:29:50.013Z,81.34
2022-09-01T08:32:18.440Z,81.59
2022-09-01T08:34:46.808Z,81.46
2022-09-01T08:37:15.095Z,81.41
2022-09-01T08:39:43.587Z,80.73
2022-09-01T08:42:20.943Z,80.29
2022-09-01T08:45:20.505Z,79.92
2022-09-01T08:48:28.721Z,79.30
2022-09-01T08:50:45.180Z,79.33
2022-09-01T08:53:43.988Z,78.59
2022-09-01T08:56:14.379Z,78.13
2022-09-01T08:58:42.948Z,77.35
2022-09-01T09:01:47.661Z,76.63
2022-09-01T09:04:49.370Z,76.65
2022-09-01T09:08:15.922Z,76.56
2022-09-01T09:11:21.520Z,76.32
2022-09-01T09:14:15.731Z,75.60
2022-09-01T09:16:53.915Z,74.70
2022-09-01T09:19:36.255Z,74.38
2022-09-01T09:22:12.766Z,73.78
2022-09-01T09:25:17.530Z,74.29
2022-09-01T09:28:00.529Z,74.19
2022-09-01T09:30:32.282Z,73.54
2022-09-01T09:33:48.610Z,72.96
2022-09-01T09:36:35.820Z,72.12
2022-09-01T09:39:13.796Z,71.59
2022-09-01T09:41:44.345Z,70.87
2022-09-01T09:44:32.915Z,70.52
2022-09-01T09:47:01.457Z,70.06
2022-09-01T09:49:41.426Z,70.14
2022-09-01T09:52:19.081Z,70.46
2022-09-01T09:55:01.748Z,70.42
2022-09-01T09:57:32.286Z,70.32
2022-09-01T10:00:25.945Z,70.16
2022-09-01T10:03:04.664Z,70.49
2022-09-01T10:05:53.358Z,70.50
2022-09-01T10:08:28.674Z,70.40
2022-09-01T10:10:58.828Z,69.98
2022-09-01T10:13:31.404Z,70.03
2022-09-01T10:16:13.133Z,70.17
2022-09-01T10:18:45.179Z,70.29
2022-09-01T10:21:30.587Z,70.71
2022-09-01T10:24:20.406Z,70.45
2022-09-01T10:26:57.327Z,70.92
2022-09-01T10:29:50.833Z,71.45
2022-09-01T10:32:38.255Z,71.60
2022-09-01T10:35:20.074Z,71.22
2022-09-01T10:37:50.083Z,71.10
2022-09-01T10:40:29.854Z,69.84
2022-09-01T10:43:40.361Z,68.74
2022-09-01T10:46:15.608Z,67.73
2022-09-01T10:48:48.813Z,66.76
2022-09-01T10:51:21.118Z,66.20
2022-09-01T10:54:03.700Z,65.91
2022-09-01T10:56:52.011Z,65.94
2022-09-01T10:59:32.844Z,66.43
2022-09-01T11:02:26.378Z,66.04
2022-09-01T11:04:58.716Z,66.30
2022-09-01T11:08:00.569Z,66.30
2022-09-01T11:10:34.766Z,65.92
2022-09-01T11:13:49.080Z,64.85
2022-09-01T11:16:49.443Z,63.15
2022-09-01T11:19:31.026Z,62.03
2022-09-01T11:22:18.178Z,61.43
2022-09-01T11:25:12.964Z,60.95
2022-09-01T11:27:50.503Z,60.34
2022-09-01T11:30:31.226Z,60.12
2022-09-01T11:33:27.027Z,58.82
2022-09-01T11:36:07.061Z,58.60
2022-09-01T11:38:53.265Z,58.00
2022-09-01T11:41:45.590Z,57.10
2022-09-01T11:44:38.532Z,55.86
2022-09-01T11:47:14.572Z,55.13
2022-09-01T11:49:55.248Z,55.40
2022-09-01T11:52:30.717Z,56.41
2022-09-01T11:55:00.264Z,56.40
2022-09-01T11:57:38.178Z,56.61
2022-09-01T12:00:14.103Z,56.76
2022-09-01T12:02:55.056Z,56.25
2022-09-01T12:05:31.277Z,54.76
2022-09-01T12:08:05.432Z,53.98
2022-09-01T12:10:40.181Z,54.17
2022-09-01T12:13:15.747Z,54.70
2022-09-01T12:16:06.876Z,54.63
2022-09-01T12:18:47.489Z,53.92
2022-09-01T12:21:38.416Z,53.61
2022-09-01T12:24:18.977Z,53.58
2022-09-01T12:26:50.433Z,53.17
2022-09-01T12:29:19.527Z,53.14
2022-09-01T12:31:52.625Z,52.34
2022-09-01T12:34:59.431Z,51.80
2022-09-01T12:37:28.097Z,51.73
2022-09-01T12:39:59.336Z,52.01
2022-09-01T12:42:41.528Z,52.66
2022-09-01T12:45:13.299Z,52.43
2022-09-01T12:47:48.043Z,52.66
2022-09-01T12:50:16.964Z,51.58
2022-09-01T12:52:52.487Z,50.95
2022-09-01T12:58:29.482Z,50.83
2022-09-01T13:01:16.084Z,50.96
2022-09-01T13:04:23.056Z,51.60
2022-09-01T13:06:52.764Z,51.75
2022-09-01T13:09:21.150Z,51.18
2022-09-01T13:12:06.590Z,50.69
2022-09-01T13:14:35.562Z,50.62
2022-09-01T13:17:04.422Z,50.76
2022-09-01T13:19:32.730Z,50.75
2022-09-01T13:22:01.074Z,50.18
2022-09-01T13:24:31.620Z,49.92
2022-09-01T13:29:50.393Z,49.64
2022-09-01T13:32:22.057Z,49.55
2022-09-01T13:34:53.477Z,49.13
2022-09-01T13:37:22.957Z,48.31
2022-09-01T13:39:51.461Z,47.52
2022-09-01T13:42:19.875Z,47.13
2022-09-01T13:44:52.551Z,46.97
2022-09-01T13:47:29.194Z,47.16
2022-09-01T13:50:10.005Z,47.60
2022-09-01T13:52:43.482Z,47.38
2022-09-01T13:55:17.347Z,47.11
2022-09-01T13:57:45.707Z,47.15
2022-09-01T14:00:18.764Z,47.54
2022-09-01T14:02:50.414Z,47.60
2022-09-01T14:05:23.147Z,47.38
2022-09-01T14:07:52.980Z,47.47
2022-09-01T14:10:24.153Z,47.14
2022-09-01T14:12:52.742Z,46.40
2022-09-01T14:15:26.589Z,45.87
2022-09-01T14:17:58.124Z,45.99
2022-09-01T14:20:36.918Z,45.35
2022-09-01T14:23:08.707Z,45.39
2022-09-01T14:25:43.042Z,45.42
2022-09-01T14:28:11.984Z,45.91
2022-09-01T14:30:45.486Z,45.90
2022-09-01T14:33:14.520Z,45.89
2022-09-01T14:35:47.784Z,45.60
2022-09-01T14:38:17.195Z,44.69
2022-09-01T14:40:49.435Z,44.64
2022-09-01T14:43:18.460Z,44.25
2022-09-01T14:45:48.059Z,44.30
2022-09-01T14:48:18.995Z,44.13
2022-09-01T14:50:49.959Z,43.99
2022-09-01T14:53:19.492Z,43.82
2022-09-01T14:55:50.516Z,44.19
2022-09-01T14:58:21.168Z,43.27
2022-09-01T15:00:50.166Z,43.27
2022-09-01T15:03:22.772Z,42.71
2022-09-01T15:05:53.082Z,43.05
2022-09-01T15:08:23.510Z,42.87
2022-09-01T15:10:51.896Z,42.83
2022-09-01T15:13:20.497Z,42.77
2022-09-01T15:15:48.938Z,42.72
2022-09-01T15:18:17.302Z,42.38
2022-09-01T15:20:50.964Z,42.16
2022-09-01T15:23:23.688Z,41.58
2022-09-01T15:25:54.151Z,40.82
2022-09-01T15:28:22.872Z,41.03
2022-09-01T15:31:04.470Z,41.24
2022-09-01T15:33:33.441Z,41.38
2022-09-01T15:36:01.952Z,41.76
2022-09-01T15:38:31.173Z,41.64
2022-09-01T15:41:01.187Z,41.54
2022-09-01T15:43:30.375Z,41.40
2022-09-01T15:46:00.588Z,40.97
2022-09-01T15:48:35.099Z,41.03
2022-09-01T15:51:45.726Z,41.14
2022-09-01T15:54:22.190Z,40.80
2022-09-01T15:56:51.312Z,40.50
2022-09-01T15:59:20.499Z,40.63
2022-09-01T16:01:48.953Z,40.66
2022-09-01T16:04:19.851Z,40.31
2022-09-01T16:06:52.722Z,39.66
2022-09-01T16:09:21.262Z,40.14
2022-09-01T16:11:50.022Z,40.25
2022-09-01T16:14:21.422Z,40.13
2022-09-01T16:17:09.401Z,39.64
2022-09-01T16:20:13.678Z,39.22
2022-09-01T16:23:48.746Z,39.23
2022-09-01T16:26:20.444Z,38.84
2022-09-01T16:28:57.756Z,38.87
2022-09-01T16:31:33.028Z,39.10
2022-09-01T16:34:13.257Z,39.10
2022-09-01T16:36:57.389Z,39.09
2022-09-01T16:39:34.031Z,38.77
2022-09-01T16:42:49.252Z,38.97
2022-09-01T16:45:56.079Z,38.54
2022-09-01T16:48:42.328Z,38.24
2022-09-01T16:51:22.179Z,38.05
2022-09-01T16:54:42.579Z,37.86
2022-09-01T16:57:45.171Z,37.92
2022-09-01T17:00:35.215Z,38.20
2022-09-01T17:03:34.196Z,37.68
2022-09-01T17:06:29.152Z,37.45
2022-09-01T17:09:10.409Z,37.45
2022-09-01T17:11:49.187Z,37.63
2022-09-01T17:14:32.522Z,38.20
2022-09-01T17:17:17.896Z,38.47
2022-09-01T17:19:52.714Z,39.01
2022-09-01T17:22:21.754Z,39.53
2022-09-01T17:25:07.806Z,40.01
2022-09-01T17:27:54.326Z,40.76
2022-09-01T17:30:22.638Z,41.38
2022-09-01T17:33:28.514Z,41.78
2022-09-01T17:36:24.256Z,42.56
2022-09-01T17:39:14.240Z,43.36
2022-09-01T17:42:11.162Z,43.90
2022-09-01T17:44:56.363Z,44.38
2022-09-01T17:47:56.196Z,44.90
2022-09-01T17:50:39.848Z,45.31
2022-09-01T17:53:34.136Z,46.23
2022-09-01T17:56:21.402Z,46.91
2022-09-01T17:59:10.546Z,47.40
2022-09-01T18:02:10.077Z,48.09
2022-09-01T18:05:12.895Z,48.71
2022-09-01T18:08:00.623Z,49.39
2022-09-01T18:11:04.524Z,49.92
2022-09-01T18:13:53.963Z,50.45
2022-09-01T18:16:35.123Z,51.17
2022-09-01T18:19:12.282Z,51.66
2022-09-01T18:21:52.155Z,51.96
2022-09-01T18:24:43.610Z,52.55
2022-09-01T18:27:12.874Z,52.98
2022-09-01T18:29:42.475Z,53.40
2022-09-01T18:32:35.182Z,53.88
2022-09-01T18:35:31.945Z,54.29
2022-09-01T18:38:13.024Z,54.84
2022-09-01T18:41:29.569Z,55.30
2022-09-01T18:44:38.746Z,55.82
2022-09-01T18:47:14.511Z,56.20
2022-09-01T18:50:18.150Z,56.64
2022-09-01T18:53:17.509Z,57.04
2022-09-01T18:56:22.196Z,57.33
2022-09-01T18:59:14.550Z,57.89
2022-09-01T19:01:59.843Z,58.17
2022-09-01T19:04:35.790Z,58.55
2022-09-01T19:07:16.741Z,59.02
2022-09-01T19:10:18.438Z,59.40
2022-09-01T19:12:55.675Z,59.86
2022-09-01T19:15:56.993Z,60.22
2022-09-01T19:18:47.038Z,60.74
2022-09-01T19:21:24.640Z,61.06
2022-09-01T19:24:05.962Z,61.41
2022-09-01T19:26:44.849Z,61.83
2022-09-01T19:29:23.613Z,62.18
2022-09-01T19:32:02.420Z,62.39
2022-09-01T19:34:43.088Z,62.67
2022-09-01T19:37:12.538Z,62.87
2022-09-01T19:39:45.338Z,63.15
2022-09-01T19:42:47.224Z,63.36
2022-09-01T19:45:31.003Z,63.76
2022-09-01T19:48:26.615Z,63.90
2022-09-01T19:51:01.025Z,64.16
2022-09-01T19:54:01.467Z,64.19
2022-09-01T19:56:51.545Z,64.38
2022-09-01T19:59:58.130Z,64.67
2022-09-01T20:02:35.167Z,65.06
2022-09-01T20:05:38.851Z,65.30
2022-09-01T20:08:46.731Z,65.53
2022-09-01T20:11:36.815Z,65.84
2022-09-01T20:14:32.978Z,66.16
2022-09-01T20:17:07.979Z,66.42
2022-09-01T20:20:17.652Z,66.56
2022-09-01T20:23:10.605Z,66.98
2022-09-01T20:26:14.712Z,67.03
2022-09-01T20:29:12.484Z,67.42
2022-09-01T20:31:50.227Z,67.63
2022-09-01T20:34:35.204Z,67.67
2022-09-01T20:37:18.785Z,67.95
2022-09-01T20:40:04.342Z,68.21
2022-09-01T20:43:08.520Z,68.39
2022-09-01T20:45:38.608Z,68.73
2022-09-01T20:48:24.693Z,68.98
2022-09-01T20:51:18.480Z,69.35
2022-09-01T20:54:29.379Z,69.61
2022-09-01T20:57:36.227Z,70.01
2022-09-01T21:00:17.122Z,70.14
2022-09-01T21:03:20.726Z,70.27
2022-09-01T21:06:08.646Z,70.85
2022-09-01T21:08:50.976Z,71.10
2022-09-01T21:11:48.252Z,71.29
2022-09-01T21:14:31.349Z,71.47
2022-09-01T21:17:43.023Z,71.70
2022-09-01T21:20:52.873Z,71.88
2022-09-01T21:23:21.477Z,72.16
2022-09-01T21:25:50.053Z,72.44
2022-09-01T21:28:21.573Z,72.60
2022-09-01T21:30:54.167Z,72.50
2022-09-01T21:33:28.730Z,72.81
2022-09-01T21:35:59.831Z,73.05
2022-09-01T21:38:29.583Z,73.30
2022-09-01T21:41:01.741Z,73.50
2022-09-01T21:43:35.820Z,73.79
2022-09-01T21:46:06.221Z,73.76
2022-09-01T21:48:35.212Z,74.01
2022-09-01T21:51:06.629Z,74.03
2022-09-01T21:53:35.022Z,74.23
2022-09-01T21:56:04.102Z,74.39
2022-09-01T21:58:32.891Z,74.68
2022-09-01T22:01:01.896Z,74.78
2022-09-01T22:03:30.263Z,75.02
2022-09-01T22:05:58.672Z,75.23
2022-09-01T22:08:27.217Z,75.14
2022-09-01T22:10:55.927Z,75.31
2022-09-01T22:13:25.367Z,75.42
2022-09-01T22:15:55.291Z,75.59
2022-09-01T22:18:23.631Z,75.58
2022-09-01T22:21:01.272Z,75.59
2022-09-01T22:23:29.657Z,75.72
2022-09-01T22:25:58.129Z,75.87
2022-09-01T22:28:26.615Z,75.83
2022-09-01T22:30:54.974Z,75.91
2022-09-01T22:33:24.373Z,75.99
2022-09-01T22:35:56.086Z,76.04
2022-09-01T22:38:24.448Z,76.09
2022-09-01T22:40:57.292Z,76.09
2022-09-01T22:43:28.177Z,76.27
2022-09-01T22:45:58.473Z,76.16
2022-09-01T22:48:28.835Z,76.33
2022-09-01T22:50:57.471Z,76.22
2022-09-01T22:53:25.772Z,76.26
2022-09-01T22:55:54.760Z,76.21
2022-09-01T22:58:23.156Z,76.42
2022-09-01T23:00:56.087Z,76.54
2022-09-01T23:03:24.512Z,76.72
2022-09-01T23:06:08.082Z,76.67
2022-09-01T23:08:37.216Z,76.91
2022-09-01T23:11:07.521Z,77.13
2022-09-01T23:13:37.931Z,77.23
2022-09-01T23:16:10.022Z,77.34
2022-09-01T23:18:42.284Z,77.68
2022-09-01T23:21:13.235Z,77.66
2022-09-01T23:23:42.336Z,77.75
2022-09-01T23:26:13.867Z,77.78
2022-09-01T23:28:44.072Z,77.99
2022-09-01T23:31:20.385Z,78.19
2022-09-01T23:33:48.989Z,78.39
2022-09-01T23:36:20.589Z,78.58
2022-09-01T23:38:49.991Z,78.53
2022-09-01T23:41:23.822Z,78.66
2022-09-01T23:43:53.240Z,78.82
2022-09-01T23:46:28.592Z,79.04
2022-09-01T23:48:57.734Z,79.12
2022-09-01T23:51:26.464Z,79.24
2022-09-01T23:53:54.845Z,79.41
2022-09-01T23:56:27.080Z,79.42
2022-09-01T23:58:56.168Z,79.62
